Time;durP1;ratioP1;P1;durP2;ratioP2;P2;SDS_P1;SDS_P2;PMS_P1;PMS_P2;Temp;Humidity;BMP_temperature;BMP_pressure;BME280_temperature;BME280_humidity;BME280_pressure;Samples;Min_cycle;Max_cycle;Signal;HPM_P1;HPM_P2
2022/11/07 00:00:58;;;;;;;2.10;1.90;;;;;;;10.04;100.00;100124.09;5061322;28;20202;-73
2022/11/07 00:03:23;;;;;;;1.70;1.60;;;;;;;10.07;100.00;100135.25;5061135;28;20636;-75
2022/11/07 00:05:49;;;;;;;1.80;1.70;;;;;;;10.10;100.00;100136.97;5060912;28;20191;-75
2022/11/07 00:08:14;;;;;;;2.23;1.80;;;;;;;10.15;100.00;100136.94;5061185;28;20982;-75
2022/11/07 00:10:39;;;;;;;1.93;1.50;;;;;;;10.17;100.00;100132.59;5056052;28;20317;-75
2022/11/07 00:13:05;;;;;;;1.83;1.73;;;;;;;10.21;100.00;100132.56;5060307;28;20185;-74
2022/11/07 00:15:30;;;;;;;1.67;1.53;;;;;;;10.26;100.00;100142.00;5060220;28;20669;-72
2022/11/07 00:17:57;;;;;;;1.47;1.37;;;;;;;10.29;100.00;100144.53;5062939;28;20194;-74
2022/11/07 00:20:22;;;;;;;2.20;1.73;;;;;;;10.31;100.00;100145.38;5064973;28;20266;-75
2022/11/07 00:22:48;;;;;;;1.63;1.30;;;;;;;10.34;100.00;100145.34;5061447;28;20203;-73
2022/11/07 00:25:13;;;;;;;1.70;1.50;;;;;;;10.36;100.00;100141.03;5058303;28;20325;-74
2022/11/07 00:27:38;;;;;;;1.47;1.37;;;;;;;10.40;100.00;100144.47;5063449;28;20179;-75
2022/11/07 00:30:04;;;;;;;1.53;1.43;;;;;;;10.43;100.00;100150.50;5059186;28;20324;-73
2022/11/07 00:32:30;;;;;;;2.23;1.17;;;;;;;10.49;100.00;100157.31;5057348;28;20555;-72
2022/11/07 00:34:55;;;;;;;1.30;1.20;;;;;;;10.52;100.00;100146.91;5059133;28;20191;-73
2022/11/07 00:37:21;;;;;;;1.40;1.30;;;;;;;10.54;100.00;100145.16;5053708;28;20187;-75
2022/11/07 00:39:46;;;;;;;2.50;1.10;;;;;;;10.59;100.00;100158.09;5059829;28;20725;-73
2022/11/07 00:42:11;;;;;;;1.60;1.50;;;;;;;10.64;100.00;100151.09;5055743;28;20293;-75
2022/11/07 00:44:37;;;;;;;1.80;1.03;;;;;;;10.65;100.00;100140.75;5059003;28;20635;-74
2022/11/07 00:47:02;;;;;;;2.13;1.00;;;;;;;10.67;100.00;100151.06;5060805;28;20666;-74
2022/11/07 00:49:28;;;;;;;0.90;0.90;;;;;;;10.70;100.00;100150.16;5065705;28;20209;-73
2022/11/07 00:51:53;;;;;;;0.90;0.90;;;;;;;10.71;100.00;100145.00;5062481;28;20192;-75
2022/11/07 00:54:19;;;;;;;0.90;0.90;;;;;;;10.75;100.00;100148.41;5059950;28;20239;-74
2022/11/07 00:56:44;;;;;;;0.97;0.90;;;;;;;10.76;100.00;100155.28;5063399;28;20837;-75
2022/11/07 00:59:09;;;;;;;1.20;1.10;;;;;;;10.75;100.00;100151.81;5060797;28;20646;-72
2022/11/07 01:01:35;;;;;;;1.87;1.00;;;;;;;10.76;100.00;100165.66;5058499;28;20187;-72
2022/11/07 01:06:46;;;;;;;1.10;1.00;;;;;;;10.78;100.00;100159.56;5065894;28;20201;-75
2022/11/07 01:09:15;;;;;;;1.07;0.97;;;;;;;10.79;100.00;100161.28;5070898;28;20179;-75
2022/11/07 01:11:40;;;;;;;1.20;1.03;;;;;;;10.80;100.00;100157.81;5060199;28;20190;-73
2022/11/07 01:14:07;;;;;;;1.17;1.03;;;;;;;10.80;100.00;100163.00;5063083;28;20388;-72
2022/11/07 01:16:34;;;;;;;1.27;1.17;;;;;;;10.84;100.00;100163.81;5057595;28;20196;-75
2022/11/07 01:19:01;;;;;;;1.60;1.13;;;;;;;10.83;100.00;100165.56;5064606;28;20190;-75
2022/11/07 01:21:27;;;;;;;1.30;1.10;;;;;;;10.83;100.00;100170.72;5059817;28;20273;-73
2022/11/07 01:23:52;;;;;;;1.20;1.10;;;;;;;10.83;100.00;100170.72;5061751;28;20643;-73
2022/11/07 01:26:18;;;;;;;1.00;0.90;;;;;;;10.87;100.00;100170.69;5065541;28;20242;-74
2022/11/07 01:28:43;;;;;;;3.00;1.10;;;;;;;10.89;100.00;100169.78;5060784;28;20660;-75
2022/11/07 01:31:12;;;;;;;0.87;0.83;;;;;;;10.90;100.00;100162.88;5062771;28;20247;-75
2022/11/07 01:33:38;;;;;;;1.67;1.40;;;;;;;10.91;100.00;100168.06;5058183;28;20182;-75
2022/11/07 01:36:15;;;;;;;1.47;1.00;;;;;;;10.96;100.00;100175.75;5066059;28;20255;-76
2022/11/07 01:38:42;;;;;;;1.20;1.10;;;;;;;10.93;100.00;100166.31;5058885;28;20685;-72
2022/11/07 01:41:20;;;;;;;1.40;1.10;;;;;;;10.97;100.00;100165.38;5063297;28;20218;-74
2022/11/07 01:43:54;;;;;;;1.37;1.00;;;;;;;10.98;100.00;100166.25;5062358;28;20750;-71
2022/11/07 01:46:24;;;;;;;1.30;1.20;;;;;;;10.96;100.00;100157.63;5059045;28;20190;-72
2022/11/07 01:49:00;;;;;;;1.10;1.00;;;;;;;11.01;100.00;100162.75;5060402;28;20210;-73
2022/11/07 01:51:28;;;;;;;1.33;1.23;;;;;;;11.00;100.00;100166.22;5055011;28;20206;-75
2022/11/07 01:53:54;;;;;;;1.27;1.17;;;;;;;10.99;100.00;100165.38;5051429;28;20187;-74
2022/11/07 01:56:24;;;;;;;1.80;1.40;;;;;;;11.03;100.00;100164.47;5051408;28;20415;-72
2022/11/07 01:58:51;;;;;;;1.40;1.30;;;;;;;11.04;100.00;100163.56;5062556;28;20183;-72
2022/11/07 02:01:17;;;;;;;1.97;1.27;;;;;;;11.04;100.00;100160.97;5063172;28;20219;-76
2022/11/07 02:03:44;;;;;;;1.80;1.30;;;;;;;11.01;100.00;100165.34;5056569;28;20211;-72
2022/11/07 02:06:16;;;;;;;1.40;1.30;;;;;;;10.98;100.00;100172.25;5063150;28;20635;-72
2022/11/07 02:08:44;;;;;;;1.87;1.20;;;;;;;10.97;100.00;100169.69;5057105;28;20191;-73
2022/11/07 02:11:12;;;;;;;1.97;1.57;;;;;;;10.94;100.00;100167.16;5060212;28;20901;-76
2022/11/07 02:13:38;;;;;;;1.63;1.30;;;;;;;10.95;100.00;100159.38;5057272;28;20189;-73
2022/11/07 02:16:04;;;;;;;2.23;1.67;;;;;;;10.96;100.00;100155.91;5059364;28;20728;-77
2022/11/07 02:18:29;;;;;;;1.40;1.30;;;;;;;10.96;100.00;100157.63;5066233;28;20183;-74
2022/11/07 02:21:06;;;;;;;2.30;1.50;;;;;;;10.98;100.00;100163.66;5059164;28;20277;-72
2022/11/07 02:23:42;;;;;;;1.90;1.50;;;;;;;10.97;100.00;100159.34;5058874;28;20205;-75
2022/11/07 02:26:08;;;;;;;1.83;1.60;;;;;;;10.96;100.00;100162.81;5063835;28;21751;-75
2022/11/07 02:28:36;;;;;;;2.30;1.50;;;;;;;10.96;100.00;100173.16;5061789;28;20194;-75
2022/11/07 02:31:01;;;;;;;1.87;1.50;;;;;;;10.98;100.00;100156.72;5059045;28;20216;-76
2022/11/07 02:33:27;;;;;;;2.70;1.90;;;;;;;10.98;100.00;100171.41;5059626;28;20179;-74
2022/11/07 02:35:53;;;;;;;2.97;1.77;;;;;;;10.94;100.00;100154.19;5064467;28;20776;-76
2022/11/07 02:38:29;;;;;;;1.97;1.87;;;;;;;10.93;100.00;100165.44;5070570;28;20219;-76
2022/11/07 02:41:09;;;;;;;2.00;1.83;;;;;;;10.94;100.00;100164.56;5063012;28;20216;-75
2022/11/07 02:43:37;;;;;;;2.40;1.80;;;;;;;10.94;100.00;100159.38;5056387;28;20241;-74
2022/11/07 02:46:07;;;;;;;1.67;1.40;;;;;;;10.96;100.00;100162.81;5067491;28;20186;-75
2022/11/07 02:48:47;;;;;;;2.57;1.40;;;;;;;10.95;100.00;100153.31;5060904;28;20658;-75
2022/11/07 02:51:13;;;;;;;1.90;1.80;;;;;;;10.94;100.00;100161.97;5060946;28;20208;-75
2022/11/07 02:53:39;;;;;;;2.00;1.80;;;;;;;10.95;100.00;100172.31;5064637;28;20235;-74
2022/11/07 02:56:05;;;;;;;2.97;1.90;;;;;;;10.95;100.00;100166.28;5062583;28;20703;-73
2022/11/07 02:58:31;;;;;;;1.70;1.60;;;;;;;10.98;100.00;100168.81;5061959;28;20247;-74
2022/11/07 03:01:01;;;;;;;1.93;1.63;;;;;;;10.97;100.00;100174.88;5066823;28;20245;-74
2022/11/07 03:03:29;;;;;;;1.50;1.40;;;;;;;10.96;100.00;100174.03;5061804;28;20709;-75
2022/11/07 03:05:55;;;;;;;2.17;1.60;;;;;;;10.98;100.00;100168.81;5055205;28;20228;-73
2022/11/07 03:08:20;;;;;;;2.07;1.70;;;;;;;11.00;100.00;100171.38;5069205;28;20551;-73
2022/11/07 03:10:45;;;;;;;1.80;1.63;;;;;;;11.03;100.00;100172.22;5060460;28;20233;-75
2022/11/07 03:13:11;;;;;;;2.07;1.70;;;;;;;11.03;100.00;100172.22;5075040;28;20657;-75
2022/11/07 03:15:36;;;;;;;1.87;1.63;;;;;;;11.02;100.00;100177.41;5066838;28;20276;-75
2022/11/07 03:18:02;;;;;;;1.73;1.60;;;;;;;11.02;100.00;100172.22;5059997;28;20610;-74
2022/11/07 03:20:27;;;;;;;2.73;1.70;;;;;;;11.02;100.00;100175.69;5056698;28;20214;-74
2022/11/07 03:22:52;;;;;;;1.70;1.60;;;;;;;11.00;100.00;100177.44;5061453;28;20753;-75
2022/11/07 03:25:18;;;;;;;2.07;1.80;;;;;;;11.02;100.00;100182.59;5070657;28;20207;-75
2022/11/07 03:27:48;;;;;;;1.70;1.53;;;;;;;11.03;100.00;100186.88;5064601;28;20191;-74
2022/11/07 03:30:14;;;;;;;1.40;1.30;;;;;;;11.02;100.00;100188.63;5059272;28;20212;-76
2022/11/07 03:32:39;;;;;;;2.47;1.60;;;;;;;11.04;100.00;100183.44;5063142;28;20193;-76
2022/11/07 03:35:05;;;;;;;1.97;1.40;;;;;;;11.04;100.00;100188.59;5057748;28;20794;-74
2022/11/07 03:37:30;;;;;;;1.90;1.40;;;;;;;11.02;100.00;100190.34;5055495;28;20568;-73
2022/11/07 03:39:56;;;;;;;1.90;1.77;;;;;;;11.00;100.00;100187.78;5063669;28;20202;-74
2022/11/07 03:42:21;;;;;;;1.80;1.50;;;;;;;10.95;100.00;100187.84;5065045;28;20230;-76
2022/11/07 03:44:47;;;;;;;3.10;1.87;;;;;;;10.93;100.00;100193.91;5067225;28;20239;-76
2022/11/07 03:47:12;;;;;;;1.60;1.40;;;;;;;10.93;100.00;100197.38;5069926;28;20283;-74
2022/11/07 03:49:37;;;;;;;1.90;1.50;;;;;;;10.94;100.00;100204.28;5062981;28;20198;-75
2022/11/07 03:52:03;;;;;;;2.03;1.43;;;;;;;10.93;100.00;100194.78;5059655;28;20174;-74
2022/11/07 03:54:28;;;;;;;1.83;1.70;;;;;;;10.93;100.00;100209.44;5075216;28;20271;-74
2022/11/07 03:56:54;;;;;;;2.57;1.57;;;;;;;10.93;100.00;100215.50;5063014;28;20199;-75
2022/11/07 03:59:19;;;;;;;1.90;1.70;;;;;;;10.93;100.00;100219.81;5068065;28;20275;-74
2022/11/07 04:01:44;;;;;;;2.60;1.40;;;;;;;10.93;100.00;100218.09;5062534;28;20666;-75
2022/11/07 04:04:10;;;;;;;3.33;1.60;;;;;;;10.93;100.00;100215.50;5061202;28;20197;-74
2022/11/07 04:06:35;;;;;;;1.93;1.47;;;;;;;10.91;100.00;100217.25;5064061;28;20292;-74
2022/11/07 04:09:01;;;;;;;1.90;1.80;;;;;;;10.91;100.00;100219.84;5068569;28;20195;-73
2022/11/07 04:19:38;;;;;;;2.10;1.60;;;;;;;10.78;100.00;100226.03;5061656;28;20221;-74
2022/11/07 04:22:03;;;;;;;1.47;1.37;;;;;;;10.75;100.00;100233.81;5059665;28;20202;-75
2022/11/07 04:24:29;;;;;;;1.30;1.20;;;;;;;10.75;100.00;100236.41;5055038;28;20270;-76
2022/11/07 04:29:38;;;;;;;1.80;1.53;;;;;;;10.81;100.00;100241.53;5058943;28;20249;-74
2022/11/07 04:32:03;;;;;;;13.17;12.17;;;;;;;10.82;100.00;100241.50;5055015;28;20215;-75
2022/11/07 04:34:29;;;;;;;10.23;9.47;;;;;;;10.86;100.00;100246.66;5054634;28;20195;-73
2022/11/07 04:36:54;;;;;;;5.30;5.00;;;;;;;10.85;100.00;100244.94;5058770;28;20752;-74
2022/11/07 04:39:19;;;;;;;4.57;4.17;;;;;;;10.85;100.00;100247.53;5061965;28;20193;-74
2022/11/07 04:41:45;;;;;;;2.77;2.50;;;;;;;10.89;100.00;100242.28;5059566;28;20676;-75
2022/11/07 04:44:12;;;;;;;3.03;1.83;;;;;;;10.90;100.00;100249.19;5056419;28;22123;-72
2022/11/07 04:46:37;;;;;;;1.70;1.60;;;;;;;10.93;100.00;100237.94;5058023;28;20182;-75
2022/11/07 04:49:03;;;;;;;1.77;1.60;;;;;;;10.93;100.00;100243.97;5057943;28;20193;-74
2022/11/07 04:51:28;;;;;;;2.07;1.83;;;;;;;10.93;100.00;100233.63;5053420;28;20675;-72
2022/11/07 04:53:53;;;;;;;2.27;1.73;;;;;;;10.92;100.00;100239.66;5056975;28;20191;-75
2022/11/07 04:56:19;;;;;;;3.27;2.30;;;;;;;10.93;100.00;100232.75;5061018;28;20553;-73
2022/11/07 04:58:44;;;;;;;2.40;2.20;;;;;;;10.96;100.00;100232.72;5062067;28;20839;-76
2022/11/07 05:01:09;;;;;;;2.43;2.23;;;;;;;10.96;100.00;100238.78;5062919;28;20233;-75
2022/11/07 05:03:35;;;;;;;3.10;2.60;;;;;;;10.97;100.00;100226.66;5061312;28;20217;-75
2022/11/07 05:06:03;;;;;;;3.50;3.20;;;;;;;10.96;100.00;100225.81;5062246;28;20210;-76
2022/11/07 05:08:29;;;;;;;2.63;2.43;;;;;;;10.96;100.00;100235.31;5062517;28;20199;-75
2022/11/07 05:10:54;;;;;;;3.53;2.37;;;;;;;10.96;100.00;100233.59;5059391;28;20210;-77
2022/11/07 05:13:20;;;;;;;2.83;2.40;;;;;;;10.96;100.00;100231.00;5056359;28;20654;-74
2022/11/07 05:15:45;;;;;;;2.60;2.40;;;;;;;10.96;100.00;100238.78;5063743;28;20232;-74
2022/11/07 05:18:10;;;;;;;3.17;2.43;;;;;;;10.96;100.00;100231.00;5058645;28;20196;-74
2022/11/07 05:20:37;;;;;;;2.37;2.07;;;;;;;10.95;100.00;100229.28;5057392;28;20225;-73
2022/11/07 05:23:19;;;;;;;2.87;2.20;;;;;;;10.96;100.00;100232.72;5066560;28;20208;-76
2022/11/07 05:25:51;;;;;;;2.87;2.50;;;;;;;10.95;100.00;100243.94;5062183;28;20173;-73
2022/11/07 05:28:22;;;;;;;5.03;2.40;;;;;;;10.95;100.00;100237.06;5086191;28;20197;-75
2022/11/07 05:30:48;;;;;;;2.30;2.10;;;;;;;10.95;100.00;100241.34;5064147;28;20206;-75
2022/11/07 05:33:15;;;;;;;2.73;2.00;;;;;;;10.96;100.00;100237.91;5067525;28;20225;-76
2022/11/07 05:35:41;;;;;;;4.23;3.30;;;;;;;10.95;100.00;100233.59;5063102;28;20179;-75
2022/11/07 05:38:07;;;;;;;3.10;2.73;;;;;;;10.89;100.00;100229.34;5070466;28;20193;-73
2022/11/07 05:40:39;;;;;;;3.83;3.00;;;;;;;10.82;100.00;100235.44;5069050;28;20280;-74
2022/11/07 05:43:07;;;;;;;2.33;2.13;;;;;;;10.75;100.00;100239.00;5060017;28;20223;-76
2022/11/07 05:45:36;;;;;;;3.03;2.73;;;;;;;10.64;100.00;100234.78;5056351;28;20184;-72
2022/11/07 05:48:04;;;;;;;3.57;2.90;;;;;;;10.59;100.00;100241.72;5063643;28;20182;-76
2022/11/07 05:50:29;;;;;;;3.20;2.80;;;;;;;10.52;100.00;100238.34;5069760;28;20240;-76
2022/11/07 05:52:55;;;;;;;3.10;2.80;;;;;;;10.50;100.00;100236.66;5068966;28;20225;-73
2022/11/07 05:55:22;;;;;;;4.20;3.90;;;;;;;10.45;100.00;100231.50;5064610;28;20204;-77
2022/11/07 05:57:48;;;;;;;3.13;2.90;;;;;;;10.44;100.00;100241.88;5070389;28;20177;-73
2022/11/07 06:00:14;;;;;;;3.80;3.50;;;;;;;10.43;100.00;100247.91;5061107;28;20285;-76
2022/11/07 06:02:39;;;;;;;5.10;4.47;;;;;;;10.45;100.00;100243.59;5060667;28;20199;-75
2022/11/07 06:05:05;;;;;;;4.53;3.47;;;;;;;10.48;100.00;100246.16;5061369;28;20197;-73
2022/11/07 06:07:35;;;;;;;4.60;4.10;;;;;;;10.52;100.00;100247.81;5051861;28;20176;-76
2022/11/07 06:10:00;;;;;;;5.63;5.03;;;;;;;10.55;100.00;100244.38;5065436;28;20669;-74
2022/11/07 06:12:26;;;;;;;4.60;3.63;;;;;;;10.54;100.00;100255.59;5063122;28;20178;-73
2022/11/07 06:14:51;;;;;;;3.47;2.50;;;;;;;10.51;100.00;100251.31;5058511;28;20217;-76
2022/11/07 06:17:16;;;;;;;3.17;2.30;;;;;;;10.46;100.00;100255.66;5067012;28;20872;-74
2022/11/07 06:19:42;;;;;;;4.30;2.23;;;;;;;10.41;100.00;100267.78;5070078;28;20212;-76
2022/11/07 06:22:07;;;;;;;2.40;1.80;;;;;;;10.36;100.00;100265.19;5065761;28;20207;-74
2022/11/07 06:24:33;;;;;;;3.47;1.97;;;;;;;10.31;100.00;100264.38;5064724;28;20183;-75
2022/11/07 06:26:58;;;;;;;2.43;1.90;;;;;;;10.28;100.00;100267.00;5066649;28;20183;-75
2022/11/07 06:29:24;;;;;;;2.27;1.70;;;;;;;10.25;100.00;100262.69;5071370;28;20181;-76
2022/11/07 06:31:49;;;;;;;3.87;2.10;;;;;;;10.27;100.00;100260.97;5061567;28;20601;-75
2022/11/07 06:34:14;;;;;;;2.57;1.70;;;;;;;10.29;100.00;100266.97;5062356;28;20227;-75
2022/11/07 06:36:40;;;;;;;1.90;1.70;;;;;;;10.34;100.00;100254.88;5062633;28;20174;-73
2022/11/07 06:39:05;;;;;;;1.73;1.40;;;;;;;10.39;100.00;100265.22;5058212;28;20559;-74
2022/11/07 06:41:31;;;;;;;2.90;1.67;;;;;;;10.45;100.00;100264.28;5054390;28;20265;-76
2022/11/07 06:43:56;;;;;;;1.80;1.50;;;;;;;10.50;100.00;100275.47;5059775;28;20256;-73
2022/11/07 06:46:22;;;;;;;2.23;1.63;;;;;;;10.55;100.00;100280.59;5061568;28;20724;-74
2022/11/07 06:48:48;;;;;;;1.80;1.50;;;;;;;10.59;100.00;100282.28;5056610;28;20179;-74
2022/11/07 06:51:13;;;;;;;4.30;1.50;;;;;;;10.62;100.00;100283.13;5055446;28;20205;-76
2022/11/07 06:53:39;;;;;;;1.63;1.53;;;;;;;10.65;100.00;100287.41;5051822;28;20715;-76
2022/11/07 06:56:07;;;;;;;2.50;1.73;;;;;;;10.68;100.00;100290.81;5060002;28;20286;-76
2022/11/07 06:58:33;;;;;;;3.27;1.70;;;;;;;10.71;100.00;100292.53;5060254;28;20183;-75
2022/11/07 07:01:07;;;;;;;1.43;1.33;;;;;;;10.75;100.00;100293.34;5055944;28;20207;-74
2022/11/07 07:03:32;;;;;;;1.87;1.37;;;;;;;10.77;100.00;100292.44;5064757;28;20205;-74
2022/11/07 07:06:03;;;;;;;1.60;1.40;;;;;;;10.78;100.00;100295.91;5065346;28;20701;-75
2022/11/07 07:08:29;;;;;;;1.63;1.53;;;;;;;10.76;100.00;100295.06;5055962;28;20224;-76
2022/11/07 07:10:54;;;;;;;2.33;1.20;;;;;;;10.75;100.00;100298.53;5058009;28;20213;-73
2022/11/07 07:13:20;;;;;;;1.57;1.10;;;;;;;10.74;100.00;100299.41;5064927;28;20183;-73
2022/11/07 07:15:56;;;;;;;1.83;1.73;;;;;;;10.76;100.00;100306.28;5063098;28;20279;-75
2022/11/07 07:18:22;;;;;;;2.00;1.80;;;;;;;10.81;100.00;100304.50;5069709;28;20178;-75
2022/11/07 07:20:48;;;;;;;2.57;2.10;;;;;;;10.89;100.00;100307.03;5068087;28;20191;-75
2022/11/07 07:23:15;;;;;;;2.87;2.17;;;;;;;10.99;100.00;100310.38;5070774;28;20217;-76
2022/11/07 07:25:40;;;;;;;2.87;1.90;;;;;;;11.09;100.00;100306.81;5062801;28;20194;-75
2022/11/07 07:28:05;;;;;;;3.30;1.90;;;;;;;11.18;100.00;100308.44;5060820;28;20191;-75
2022/11/07 07:30:31;;;;;;;2.97;1.97;;;;;;;11.25;100.00;100293.69;5065035;28;20564;-76
2022/11/07 07:32:56;;;;;;;3.07;1.93;;;;;;;11.33;100.00;100303.94;5068737;28;20170;-76
2022/11/07 07:35:22;;;;;;;2.07;1.40;;;;;;;11.42;100.00;100309.00;5076010;28;20544;-75
2022/11/07 07:37:51;;;;;;;2.20;1.60;;;;;;;11.54;100.00;100297.66;5066660;28;20192;-75
2022/11/07 07:40:18;;;;;;;1.90;1.47;;;;;;;11.66;100.00;100301.81;5064945;28;21676;-75
2022/11/07 07:42:43;;;;;;;1.50;1.40;;;;;;;11.76;100.00;100294.78;5059098;28;20299;-76
2022/11/07 07:45:11;;;;;;;3.00;1.60;;;;;;;11.85;100.00;100308.47;5066869;28;20264;-75
2022/11/07 07:47:37;;;;;;;2.87;1.57;;;;;;;11.91;100.00;100297.16;5064766;28;20187;-75
2022/11/07 07:50:03;;;;;;;1.67;1.20;;;;;;;11.95;100.00;100303.16;5070186;28;20212;-75
2022/11/07 07:52:29;;;;;;;1.40;1.30;;;;;;;11.93;100.00;100295.41;5065677;28;20180;-76
2022/11/07 07:54:57;;;;;;;1.90;1.40;;;;;;;11.87;100.00;100306.69;5060815;28;20191;-76
2022/11/07 07:57:22;;;;;;;2.57;1.80;;;;;;;11.82;100.00;100311.13;5070167;28;20178;-77
2022/11/07 07:59:47;;;;;;;3.27;1.40;;;;;;;11.79;100.00;100311.16;5063486;28;20210;-72
2022/11/07 08:02:13;;;;;;;3.10;1.90;;;;;;;11.77;100.00;100312.91;5068077;28;20280;-74
2022/11/07 08:04:41;;;;;;;1.93;1.27;;;;;;;11.79;100.00;100316.34;5067870;28;20274;-76
2022/11/07 08:07:07;;;;;;;1.90;1.40;;;;;;;11.87;100.00;100316.22;5068089;28;20663;-74
2022/11/07 08:09:35;;;;;;;3.80;1.60;;;;;;;11.97;100.00;100310.03;5072865;28;20208;-75
2022/11/07 08:12:10;;;;;;;5.27;1.63;;;;;;;12.04;100.00;100308.22;5080339;28;20183;-73
2022/11/07 08:14:35;;;;;;;4.50;1.70;;;;;;;12.08;100.00;100309.91;5075160;28;20172;-72
2022/11/07 08:17:01;;;;;;;2.07;1.53;;;;;;;12.14;100.00;100311.53;5078997;28;20225;-74
2022/11/07 08:19:26;;;;;;;1.90;1.40;;;;;;;12.22;100.00;100303.66;5082469;28;20206;-75
2022/11/07 08:21:52;;;;;;;2.77;1.40;;;;;;;12.31;100.00;100308.72;5079241;28;20190;-74
2022/11/07 08:24:17;;;;;;;3.30;2.00;;;;;;;12.41;100.00;100306.81;5070630;28;20198;-76
2022/11/07 08:26:43;;;;;;;3.03;2.17;;;;;;;12.47;100.00;100307.59;5075966;28;20180;-75
2022/11/07 08:29:08;;;;;;;2.97;1.67;;;;;;;12.54;100.00;100305.75;5055615;28;20198;-74
2022/11/07 08:31:34;;;;;;;2.17;1.63;;;;;;;12.57;100.00;100310.00;5067024;28;20187;-74
2022/11/07 08:33:59;;;;;;;3.40;2.00;;;;;;;12.60;100.00;100307.38;5068911;28;20193;-76
2022/11/07 08:36:26;;;;;;;2.60;1.50;;;;;;;12.62;100.00;100313.41;5068144;28;20671;-74
2022/11/07 08:38:52;;;;;;;1.83;1.50;;;;;;;12.64;100.00;100314.22;5078120;28;20185;-77
2022/11/07 08:41:18;;;;;;;2.90;1.67;;;;;;;12.67;100.00;100321.09;5067160;28;20207;-76
2022/11/07 08:43:44;;;;;;;4.13;1.80;;;;;;;12.72;100.00;100319.25;5067682;28;20207;-76
2022/11/07 08:46:09;;;;;;;2.87;1.40;;;;;;;12.79;100.00;100319.13;5064387;28;20213;-77
2022/11/07 08:48:35;;;;;;;3.50;1.80;;;;;;;12.91;100.00;100317.22;5064473;28;20195;-74
2022/11/07 08:51:03;;;;;;;3.73;1.40;;;;;;;12.99;100.00;100317.94;5071062;28;20347;-76
2022/11/07 08:53:29;;;;;;;3.93;1.50;;;;;;;13.08;100.00;100316.91;5068413;28;20249;-73
2022/11/07 08:56:03;;;;;;;2.67;1.40;;;;;;;13.21;100.00;100320.97;5064219;28;20603;-76
2022/11/07 08:58:28;;;;;;;3.60;1.40;;;;;;;13.30;100.00;100322.53;5076107;28;20196;-75
2022/11/07 09:00:54;;;;;;;2.30;1.33;;;;;;;13.38;100.00;100322.38;5078688;28;20208;-76
2022/11/07 09:03:19;;;;;;;3.17;1.60;;;;;;;13.43;100.00;100327.53;5063000;28;20838;-74
2022/11/07 09:05:44;;;;;;;4.33;1.63;;;;;;;13.47;100.00;100327.41;5070429;28;20617;-73
2022/11/07 09:08:10;;;;;;;2.37;1.53;;;;;;;13.60;100.00;100333.22;5056279;28;20194;-71
2022/11/07 09:10:35;;;;;;;2.37;1.53;;;;;;;13.69;100.00;100330.44;5060655;28;20208;-75
2022/11/07 09:13:00;;;;;;;5.20;2.00;;;;;;;13.74;100.00;100325.16;5068322;28;20176;-73
2022/11/07 09:15:26;;;;;;;3.17;1.53;;;;;;;13.83;100.00;100330.16;5070944;28;20644;-76
2022/11/07 09:17:52;;;;;;;2.97;1.40;;;;;;;13.87;100.00;100333.53;5058394;28;20638;-76
2022/11/07 09:20:18;;;;;;;2.53;1.40;;;;;;;13.94;100.00;100337.72;5060557;28;20221;-76
2022/11/07 09:22:44;;;;;;;2.50;1.33;;;;;;;13.96;100.00;100335.94;5061721;28;20956;-75
2022/11/07 09:25:10;;;;;;;3.13;1.60;;;;;;;13.98;100.00;100338.50;5067538;28;20220;-75
2022/11/07 09:27:36;;;;;;;2.43;1.43;;;;;;;13.98;100.00;100341.09;5067660;28;20225;-73
2022/11/07 09:30:03;;;;;;;2.77;1.57;;;;;;;14.01;100.00;100336.69;5074256;28;20262;-74
2022/11/07 09:32:31;;;;;;;3.40;1.70;;;;;;;14.10;100.00;100338.22;5060771;28;20182;-74
2022/11/07 09:34:56;;;;;;;2.53;1.37;;;;;;;14.23;100.00;100332.72;5064559;28;20194;-73
2022/11/07 09:37:22;;;;;;;2.17;1.53;;;;;;;14.34;100.00;100333.34;5056954;28;20185;-73
2022/11/07 09:39:48;;;;;;;2.10;1.43;;;;;;;14.41;100.00;100342.72;5061460;28;20619;-76
2022/11/07 09:42:44;;;;;;;2.80;1.73;;;;;;;14.47;100.00;100334.75;5059523;28;20202;-74
2022/11/07 09:45:12;;;;;;;2.93;1.60;;;;;;;14.51;100.00;100334.69;5064177;28;20197;-73
2022/11/07 09:47:44;;;;;;;2.50;1.97;;;;;;;14.52;100.00;100344.22;5064556;28;20195;-75
2022/11/07 09:50:11;;;;;;;2.83;1.87;;;;;;;14.53;100.00;100336.34;5060859;28;20295;-73
2022/11/07 09:52:51;;;;;;;2.00;1.80;;;;;;;14.52;100.00;100337.25;5053526;28;20649;-73
2022/11/07 09:55:26;;;;;;;3.53;1.73;;;;;;;14.52;100.00;100333.81;5057992;28;20196;-75
2022/11/07 09:57:55;;;;;;;2.37;1.47;;;;;;;14.55;100.00;100328.50;5061542;28;20189;-73
2022/11/07 10:00:21;;;;;;;2.77;1.50;;;;;;;14.69;100.00;100329.03;5056372;28;20681;-75
2022/11/07 10:02:54;;;;;;;3.17;1.50;;;;;;;15.00;100.00;100328.22;5061317;28;20210;-74
2022/11/07 10:05:38;;;;;;;4.33;1.57;;;;;;;15.40;100.00;100326.28;5067771;28;20185;-76
2022/11/07 10:08:10;;;;;;;2.93;1.40;;;;;;;15.76;100.00;100320.91;5066841;28;20185;-76
2022/11/07 10:10:48;;;;;;;4.40;1.60;;;;;;;16.01;98.56;100322.78;5062473;28;20249;-75
2022/11/07 10:13:19;;;;;;;2.27;1.30;;;;;;;16.18;96.34;100324.03;5061898;28;20187;-75
2022/11/07 10:16:11;;;;;;;4.13;1.60;;;;;;;16.25;94.20;100320.31;5063248;28;20195;-73
2022/11/07 10:18:54;;;;;;;4.07;1.53;;;;;;;16.30;94.66;100321.88;5058721;28;20198;-72
2022/11/07 10:21:28;;;;;;;2.63;1.20;;;;;;;16.35;93.17;100321.72;5058385;28;20894;-75
2022/11/07 10:24:15;;;;;;;2.03;1.20;;;;;;;16.42;93.10;100320.59;5056770;28;20739;-74
2022/11/07 10:26:43;;;;;;;4.23;1.43;;;;;;;16.52;93.19;100330.78;5047995;28;20188;-73
2022/11/07 10:29:30;;;;;;;2.73;1.40;;;;;;;16.64;93.68;100322.50;5060807;28;20271;-73
2022/11/07 10:32:22;;;;;;;2.13;1.17;;;;;;;16.67;92.15;100325.03;5057150;28;20269;-74
2022/11/07 10:35:13;;;;;;;2.53;1.30;;;;;;;16.62;92.26;100329.56;5052243;28;20590;-72
2022/11/07 10:37:38;;;;;;;3.13;1.40;;;;;;;16.54;92.39;100324.56;5052099;28;20194;-73
2022/11/07 10:40:15;;;;;;;3.37;1.27;;;;;;;16.50;92.94;100332.56;5057362;28;20218;-75
2022/11/07 10:42:43;;;;;;;2.33;1.33;;;;;;;16.42;93.25;100327.59;5057949;28;20208;-75
2022/11/07 10:45:16;;;;;;;3.50;1.43;;;;;;;16.32;93.99;100326.19;5058703;28;20197;-76
2022/11/07 10:47:42;;;;;;;3.80;1.67;;;;;;;16.25;93.80;100330.78;5062675;28;20914;-75
2022/11/07 10:50:21;;;;;;;2.93;1.20;;;;;;;16.07;94.05;100335.66;5063140;28;20328;-73
2022/11/07 10:52:58;;;;;;;3.50;1.50;;;;;;;15.98;94.50;100336.81;5058337;28;20232;-75
2022/11/07 10:55:25;;;;;;;3.13;1.63;;;;;;;15.87;94.50;100330.19;5063057;28;20197;-75
2022/11/07 10:57:55;;;;;;;3.33;1.37;;;;;;;15.77;93.68;100334.78;5061139;28;20179;-75
2022/11/07 11:00:28;;;;;;;3.33;1.20;;;;;;;15.60;94.25;100332.69;5060245;28;20213;-73
2022/11/07 11:02:55;;;;;;;3.03;1.30;;;;;;;15.43;94.74;100326.19;5053153;28;20289;-75
2022/11/07 11:05:29;;;;;;;3.90;1.80;;;;;;;15.34;95.52;100332.53;5066928;28;20187;-73
2022/11/07 11:07:56;;;;;;;3.50;1.50;;;;;;;15.32;96.40;100325.66;5088786;28;20459;-74
2022/11/07 11:10:26;;;;;;;3.13;1.40;;;;;;;15.32;96.69;100326.50;5070728;28;20208;-76
2022/11/07 11:12:51;;;;;;;4.10;1.60;;;;;;;15.35;96.52;100329.03;5058171;28;20179;-72
2022/11/07 11:15:26;;;;;;;2.70;1.50;;;;;;;15.41;96.33;100329.75;5063397;28;20187;-75
2022/11/07 11:18:00;;;;;;;2.27;1.27;;;;;;;15.48;96.38;100326.06;5064995;28;20223;-75
2022/11/07 11:20:38;;;;;;;2.80;1.37;;;;;;;15.62;96.20;100312.63;5065161;28;20295;-74
2022/11/07 11:23:18;;;;;;;2.23;1.40;;;;;;;15.69;95.84;100317.63;5077907;28;20583;-76
2022/11/07 11:25:46;;;;;;;3.70;1.53;;;;;;;15.73;94.77;100310.56;5056393;28;20187;-75
2022/11/07 11:28:20;;;;;;;2.83;1.40;;;;;;;15.76;95.08;100313.06;5073231;28;20190;-75
2022/11/07 11:30:49;;;;;;;2.83;1.50;;;;;;;15.81;95.20;100315.53;5062694;28;20216;-75
2022/11/07 11:33:20;;;;;;;3.17;1.40;;;;;;;15.91;95.13;100300.50;5061880;28;20216;-73